createdAt,value
2022-12-01T00:00:00.398Z,91.40
2022-12-01T00:00:19.205Z,91.20
2022-12-01T00:00:28.643Z,91.10
2022-12-01T00:00:38.075Z,91.00
2022-12-01T00:00:47.565Z,90.80
2022-12-01T00:00:56.992Z,90.70
2022-12-01T00:01:06.423Z,90.60
2022-12-01T00:01:15.837Z,90.50
2022-12-01T00:01:25.251Z,90.40
2022-12-01T00:01:34.771Z,90.30
2022-12-01T00:01:44.363Z,90.30
2022-12-01T00:01:53.721Z,90.30
2022-12-01T00:02:03.088Z,90.20
2022-12-01T00:02:12.579Z,90.20
2022-12-01T00:02:21.891Z,90.20
2022-12-01T00:02:31.306Z,90.10
2022-12-01T00:02:40.706Z,90.10
2022-12-01T00:02:59.586Z,90.10
2022-12-01T00:03:09.156Z,90.00
2022-12-01T00:03:18.517Z,90.10
2022-12-01T00:03:27.851Z,90.10
2022-12-01T00:03:37.255Z,90.10
2022-12-01T00:03:46.672Z,90.10
2022-12-01T00:03:56.097Z,90.10
2022-12-01T00:04:05.513Z,90.10
2022-12-01T00:04:14.936Z,90.20
2022-12-01T00:04:24.357Z,90.30
2022-12-01T00:04:33.839Z,90.30
2022-12-01T00:04:43.262Z,90.40
2022-12-01T00:04:52.680Z,90.40
2022-12-01T00:05:02.100Z,90.50
2022-12-01T00:05:11.532Z,90.50
2022-12-01T00:05:21.005Z,90.60
2022-12-01T00:05:30.427Z,90.70
2022-12-01T00:05:49.280Z,90.80
2022-12-01T00:05:58.695Z,91.00
2022-12-01T00:06:08.120Z,91.00
2022-12-01T00:06:17.533Z,91.20
2022-12-01T00:06:26.959Z,91.30
2022-12-01T00:06:36.421Z,91.30
2022-12-01T00:06:45.944Z,91.40
2022-12-01T00:06:55.367Z,91.40
2022-12-01T00:07:04.793Z,91.40
2022-12-01T00:07:14.234Z,91.50
2022-12-01T00:07:23.692Z,91.50
2022-12-01T00:07:33.126Z,91.60
2022-12-01T00:07:42.550Z,91.70
2022-12-01T00:07:51.999Z,91.70
2022-12-01T00:08:01.458Z,91.70
2022-12-01T00:08:10.799Z,91.80
2022-12-01T00:08:20.296Z,91.80
2022-12-01T00:08:39.090Z,91.90
2022-12-01T00:08:48.503Z,92.00
2022-12-01T00:08:57.886Z,92.00
2022-12-01T00:09:07.298Z,92.10
2022-12-01T00:09:20.027Z,92.10
2022-12-01T00:09:26.122Z,92.10
2022-12-01T00:09:35.533Z,92.10
2022-12-01T00:09:44.965Z,92.20
2022-12-01T00:09:54.447Z,92.20
2022-12-01T00:10:03.879Z,92.30
2022-12-01T00:10:13.323Z,92.30
2022-12-01T00:10:22.719Z,92.40
2022-12-01T00:10:32.171Z,92.40
2022-12-01T00:10:41.604Z,92.50
2022-12-01T00:10:50.999Z,92.60
2022-12-01T00:11:00.410Z,92.60
2022-12-01T00:11:19.257Z,92.80
2022-12-01T00:11:28.637Z,92.90
2022-12-01T00:11:38.057Z,93.00
2022-12-01T00:11:47.463Z,93.10
2022-12-01T00:11:56.858Z,93.20
2022-12-01T00:12:06.265Z,93.20
2022-12-01T00:12:15.685Z,93.20
2022-12-01T00:12:25.093Z,93.30
2022-12-01T00:12:34.551Z,93.30
2022-12-01T00:12:43.974Z,93.30
2022-12-01T00:12:53.460Z,93.40
2022-12-01T00:13:02.920Z,93.40
2022-12-01T00:13:12.365Z,93.50
2022-12-01T00:13:21.790Z,93.50
2022-12-01T00:13:31.229Z,93.60
2022-12-01T00:13:40.632Z,93.60
2022-12-01T00:13:59.507Z,93.70
2022-12-01T00:14:08.914Z,93.70
2022-12-01T00:14:18.312Z,93.70
2022-12-01T00:14:27.697Z,93.80
2022-12-01T00:14:37.137Z,93.80
2022-12-01T00:14:46.532Z,93.90
2022-12-01T00:14:55.948Z,93.90
2022-12-01T00:15:05.367Z,94.00
2022-12-01T00:15:14.781Z,94.10
2022-12-01T00:15:24.203Z,94.10
2022-12-01T00:15:33.656Z,94.20
2022-12-01T00:15:43.070Z,94.20
2022-12-01T00:15:52.484Z,94.20
2022-12-01T00:16:01.932Z,94.30
2022-12-01T00:16:11.419Z,94.30
2022-12-01T00:16:20.881Z,94.30
2022-12-01T00:16:30.311Z,94.30
2022-12-01T00:16:49.094Z,94.10
2022-12-01T00:16:58.572Z,94.10
2022-12-01T00:17:07.887Z,94.00
2022-12-01T00:17:17.296Z,93.90
2022-12-01T00:17:26.693Z,93.70
2022-12-01T00:17:36.108Z,93.50
2022-12-01T00:17:45.523Z,93.50
2022-12-01T00:17:54.920Z,93.40
2022-12-01T00:18:04.318Z,93.30
2022-12-01T00:18:13.732Z,93.30
2022-12-01T00:18:23.115Z,93.20
2022-12-01T00:18:32.537Z,93.00
2022-12-01T00:18:41.953Z,92.90
2022-12-01T00:18:51.425Z,92.80
2022-12-01T00:19:00.835Z,92.80
2022-12-01T00:19:10.219Z,92.60
2022-12-01T00:19:29.046Z,92.50
2022-12-01T00:19:38.449Z,92.40
2022-12-01T00:19:48.162Z,92.30
2022-12-01T00:19:57.325Z,92.10
2022-12-01T00:20:06.712Z,91.90
2022-12-01T00:20:16.090Z,91.80
2022-12-01T00:20:25.541Z,91.70
2022-12-01T00:20:34.949Z,91.50
2022-12-01T00:20:44.365Z,91.40
2022-12-01T00:20:53.775Z,91.40
2022-12-01T00:21:03.170Z,91.40
2022-12-01T00:21:12.568Z,91.20
2022-12-01T00:21:21.992Z,91.10
2022-12-01T00:21:31.439Z,90.90
2022-12-01T00:21:40.877Z,90.80
2022-12-01T00:21:50.343Z,90.80
2022-12-01T00:22:09.234Z,90.60
2022-12-01T00:22:18.611Z,90.40
2022-12-01T00:22:28.046Z,90.20
2022-12-01T00:22:37.485Z,90.00
2022-12-01T00:22:46.900Z,90.00
2022-12-01T00:22:56.312Z,89.60
2022-12-01T00:23:05.733Z,89.60
2022-12-01T00:23:15.151Z,89.50
2022-12-01T00:23:24.580Z,89.30
2022-12-01T00:23:34.066Z,89.30
2022-12-01T00:23:43.539Z,89.30
2022-12-01T00:23:53.139Z,89.10
2022-12-01T00:24:02.549Z,88.80
2022-12-01T00:24:11.986Z,88.60
2022-12-01T00:24:21.434Z,88.50
2022-12-01T00:24:30.837Z,88.50
2022-12-01T00:24:40.237Z,88.60
2022-12-01T00:24:59.118Z,88.60
2022-12-01T00:25:08.541Z,88.40
2022-12-01T00:25:17.960Z,88.30
2022-12-01T00:25:27.409Z,88.10
2022-12-01T00:25:36.856Z,87.80
2022-12-01T00:25:46.251Z,87.60
2022-12-01T00:25:55.684Z,87.40
2022-12-01T00:26:05.134Z,87.20
2022-12-01T00:26:14.567Z,87.10
2022-12-01T00:26:23.974Z,87.00
2022-12-01T00:26:33.380Z,86.70
2022-12-01T00:26:42.771Z,86.60
2022-12-01T00:26:52.169Z,86.30
2022-12-01T00:27:01.567Z,86.00
2022-12-01T00:27:11.229Z,86.00
2022-12-01T00:27:20.662Z,85.90
2022-12-01T00:27:39.540Z,85.60
2022-12-01T00:27:48.939Z,85.60
2022-12-01T00:27:58.363Z,85.40
2022-12-01T00:28:07.812Z,85.20
2022-12-01T00:28:17.217Z,85.20
2022-12-01T00:28:26.618Z,85.20
2022-12-01T00:28:36.049Z,85.00
2022-12-01T00:28:45.462Z,85.00
2022-12-01T00:28:54.870Z,84.80
2022-12-01T00:29:04.292Z,84.80
2022-12-01T00:29:13.671Z,84.70
2022-12-01T00:29:23.082Z,84.70
2022-12-01T00:29:32.505Z,84.50
2022-12-01T00:29:41.909Z,84.40
2022-12-01T00:29:51.356Z,84.30
2022-12-01T00:30:00.916Z,84.20
2022-12-01T00:30:10.328Z,84.10
2022-12-01T00:30:29.154Z,83.90
2022-12-01T00:30:38.574Z,83.90
2022-12-01T00:30:47.998Z,83.70
2022-12-01T00:30:57.396Z,83.50
2022-12-01T00:31:06.809Z,83.20
2022-12-01T00:31:16.249Z,83.20
2022-12-01T00:31:25.828Z,83.10
2022-12-01T00:31:35.188Z,83.00
2022-12-01T00:31:44.631Z,82.80
2022-12-01T00:31:54.011Z,82.70
2022-12-01T00:32:03.425Z,82.70
2022-12-01T00:32:12.875Z,82.70
2022-12-01T00:32:22.203Z,82.70
2022-12-01T00:32:31.599Z,82.70
2022-12-01T00:32:40.985Z,82.80
2022-12-01T00:32:50.393Z,82.90
2022-12-01T00:33:09.248Z,83.00
2022-12-01T00:33:18.651Z,82.90
2022-12-01T00:33:28.077Z,82.90
2022-12-01T00:33:37.563Z,82.90
2022-12-01T00:33:46.967Z,83.00
2022-12-01T00:33:56.350Z,83.00
2022-12-01T00:34:11.137Z,82.90
2022-12-01T00:34:15.177Z,82.90
2022-12-01T00:34:24.570Z,82.80
2022-12-01T00:34:34.021Z,82.80
2022-12-01T00:34:43.477Z,82.70
2022-12-01T00:34:52.907Z,82.60
2022-12-01T00:35:02.312Z,82.70
2022-12-01T00:35:11.741Z,82.60
2022-12-01T00:35:21.155Z,82.60
2022-12-01T00:35:30.581Z,82.60
2022-12-01T00:35:49.465Z,82.50
2022-12-01T00:35:58.911Z,82.50
2022-12-01T00:36:08.335Z,82.50
2022-12-01T00:36:17.781Z,82.50
2022-12-01T00:36:27.174Z,82.50
2022-12-01T00:36:36.577Z,82.40
2022-12-01T00:36:46.050Z,82.40
2022-12-01T00:36:55.479Z,82.40
2022-12-01T00:37:04.912Z,82.40
2022-12-01T00:37:14.334Z,82.40
2022-12-01T00:37:23.814Z,82.20
2022-12-01T00:37:33.228Z,82.20
2022-12-01T00:37:42.665Z,82.10
2022-12-01T00:37:52.094Z,82.10
2022-12-01T00:38:01.485Z,82.10
2022-12-01T00:38:11.458Z,82.00
2022-12-01T00:38:20.856Z,82.10
2022-12-01T00:38:30.426Z,82.10
2022-12-01T00:38:49.254Z,82.10
2022-12-01T00:38:58.667Z,82.10
2022-12-01T00:39:08.095Z,82.10
2022-12-01T00:39:17.513Z,82.10
2022-12-01T00:39:26.888Z,82.10
2022-12-01T00:39:36.310Z,82.10
2022-12-01T00:39:45.760Z,82.20
2022-12-01T00:39:55.115Z,82.20
2022-12-01T00:40:04.556Z,82.20
2022-12-01T00:40:13.979Z,82.10
2022-12-01T00:40:23.382Z,82.10
2022-12-01T00:40:32.800Z,82.00
2022-12-01T00:40:42.208Z,81.90
2022-12-01T00:40:51.598Z,81.80
2022-12-01T00:41:01.029Z,81.70
2022-12-01T00:41:10.453Z,81.70
2022-12-01T00:41:31.263Z,81.40
2022-12-01T00:41:40.726Z,81.20
2022-12-01T00:41:50.144Z,81.20
2022-12-01T00:41:59.541Z,81.20
2022-12-01T00:42:13.206Z,81.20
2022-12-01T00:42:18.374Z,81.20
2022-12-01T00:42:27.794Z,81.20
2022-12-01T00:42:37.196Z,81.20
2022-12-01T00:42:46.640Z,81.20
2022-12-01T00:42:56.031Z,81.10
2022-12-01T00:43:05.448Z,81.10
2022-12-01T00:43:14.928Z,81.10
2022-12-01T00:43:24.346Z,81.20
2022-12-01T00:43:33.783Z,81.30
2022-12-01T00:43:43.188Z,81.30
2022-12-01T00:43:52.612Z,81.40
2022-12-01T00:44:02.021Z,81.40
2022-12-01T00:44:11.436Z,81.30
2022-12-01T00:44:20.848Z,81.30
2022-12-01T00:44:30.238Z,81.40
2022-12-01T00:44:49.181Z,81.40
2022-12-01T00:44:58.598Z,81.40
2022-12-01T00:45:08.012Z,81.30
2022-12-01T00:45:17.408Z,81.30
2022-12-01T00:45:26.825Z,81.40
2022-12-01T00:45:36.297Z,81.30
2022-12-01T00:45:45.747Z,81.20
2022-12-01T00:45:55.147Z,81.10
2022-12-01T00:46:04.493Z,81.00
2022-12-01T00:46:13.974Z,80.90
2022-12-01T00:46:23.369Z,80.90
2022-12-01T00:46:32.794Z,80.80
2022-12-01T00:46:42.075Z,80.60
2022-12-01T00:46:51.488Z,80.50
2022-12-01T00:47:00.931Z,80.50
2022-12-01T00:47:10.355Z,80.50
2022-12-01T00:47:29.259Z,80.50
2022-12-01T00:47:38.707Z,80.60
2022-12-01T00:47:48.177Z,80.50
2022-12-01T00:47:57.704Z,80.60
2022-12-01T00:48:07.120Z,80.60
2022-12-01T00:48:16.599Z,80.50
2022-12-01T00:48:26.005Z,80.50
2022-12-01T00:48:35.432Z,80.50
2022-12-01T00:48:44.850Z,80.50
2022-12-01T00:48:54.341Z,80.50
2022-12-01T00:49:03.757Z,80.40
2022-12-01T00:49:13.165Z,80.50
2022-12-01T00:49:22.575Z,80.60
2022-12-01T00:49:31.991Z,80.60
2022-12-01T00:49:41.433Z,80.60
2022-12-01T00:49:51.127Z,80.60
2022-12-01T00:50:00.300Z,80.70
2022-12-01T00:50:19.092Z,80.80
2022-12-01T00:50:28.499Z,80.90
2022-12-01T00:50:37.936Z,80.90
2022-12-01T00:50:47.317Z,80.70
2022-12-01T00:50:56.739Z,80.60
2022-12-01T00:51:06.128Z,80.50
2022-12-01T00:51:15.513Z,80.40
2022-12-01T00:51:24.912Z,80.20
2022-12-01T00:51:34.299Z,80.20
2022-12-01T00:51:43.700Z,80.20
2022-12-01T00:51:53.105Z,80.20
2022-12-01T00:52:02.524Z,80.30
2022-12-01T00:52:11.925Z,80.30
2022-12-01T00:52:21.340Z,80.30
2022-12-01T00:52:30.739Z,80.40
2022-12-01T00:52:49.568Z,80.50
2022-12-01T00:52:58.981Z,80.70
2022-12-01T00:53:08.423Z,80.70
2022-12-01T00:53:17.901Z,80.80
2022-12-01T00:53:27.311Z,80.80
2022-12-01T00:53:36.755Z,80.90
2022-12-01T00:53:46.152Z,81.00
2022-12-01T00:53:55.561Z,81.00
2022-12-01T00:54:05.041Z,81.00
2022-12-01T00:54:14.449Z,80.90
2022-12-01T00:54:23.835Z,80.80
2022-12-01T00:54:33.241Z,80.80
2022-12-01T00:54:42.652Z,80.80
2022-12-01T00:54:52.096Z,80.80
2022-12-01T00:55:01.502Z,80.70
2022-12-01T00:55:10.937Z,80.70
2022-12-01T00:55:20.331Z,80.60
2022-12-01T00:55:39.197Z,80.70
2022-12-01T00:55:48.585Z,80.70
2022-12-01T00:55:57.999Z,80.70
2022-12-01T00:56:07.389Z,80.70
2022-12-01T00:56:16.768Z,80.70
2022-12-01T00:56:26.179Z,80.80
2022-12-01T00:56:35.609Z,80.80
2022-12-01T00:56:45.044Z,80.90
2022-12-01T00:56:54.433Z,80.90
2022-12-01T00:57:03.845Z,80.90
2022-12-01T00:57:13.239Z,81.00
2022-12-01T00:57:22.624Z,81.00
2022-12-01T00:57:32.058Z,81.00
2022-12-01T00:57:41.448Z,80.90
2022-12-01T00:57:50.853Z,80.90
2022-12-01T00:58:00.276Z,80.90
2022-12-01T00:58:19.110Z,81.00
2022-12-01T00:58:28.481Z,80.90
2022-12-01T00:58:37.928Z,80.90
2022-12-01T00:58:47.332Z,81.00
2022-12-01T00:58:56.733Z,80.90
2022-12-01T00:59:06.163Z,80.90
2022-12-01T00:59:15.567Z,80.90
2022-12-01T00:59:24.959Z,80.80
2022-12-01T00:59:34.422Z,80.80
2022-12-01T00:59:43.887Z,80.60
2022-12-01T00:59:53.272Z,80.60
2022-12-01T01:00:02.691Z,80.50
2022-12-01T01:00:12.067Z,80.50
2022-12-01T01:00:21.493Z,80.40
2022-12-01T01:00:30.887Z,80.40
2022-12-01T01:00:40.334Z,80.40
2022-12-01T01:00:59.269Z,80.30
2022-12-01T01:01:08.682Z,80.20
2022-12-01T01:01:18.095Z,80.10
2022-12-01T01:01:27.463Z,80.00
2022-12-01T01:01:36.929Z,80.00
2022-12-01T01:01:46.291Z,80.00
2022-12-01T01:01:55.779Z,79.80
2022-12-01T01:02:05.111Z,79.80
2022-12-01T01:02:14.571Z,79.70
2022-12-01T01:02:23.947Z,79.70
2022-12-01T01:02:33.325Z,79.60
2022-12-01T01:02:42.800Z,79.40
2022-12-01T01:02:52.213Z,79.50
2022-12-01T01:03:01.575Z,79.50
2022-12-01T01:03:10.946Z,79.60
2022-12-01T01:03:20.417Z,79.60
2022-12-01T01:03:39.266Z,79.50
2022-12-01T01:03:48.649Z,79.50
2022-12-01T01:03:58.082Z,79.50
2022-12-01T01:04:07.495Z,79.40
2022-12-01T01:04:16.940Z,79.40
2022-12-01T01:04:26.355Z,79.30
2022-12-01T01:04:35.767Z,79.20
2022-12-01T01:04:45.185Z,79.10
2022-12-01T01:04:54.637Z,79.00
2022-12-01T01:05:04.077Z,78.90
2022-12-01T01:05:13.490Z,78.90
2022-12-01T01:05:22.887Z,78.80
2022-12-01T01:05:32.343Z,78.70
2022-12-01T01:05:41.767Z,78.70
2022-12-01T01:05:51.187Z,78.70
2022-12-01T01:06:00.596Z,78.80
2022-12-01T01:06:19.423Z,78.90
2022-12-01T01:06:28.830Z,79.00
2022-12-01T01:06:38.259Z,79.10
2022-12-01T01:06:47.653Z,79.20
2022-12-01T01:06:57.047Z,79.20
2022-12-01T01:07:06.473Z,79.30
2022-12-01T01:07:15.942Z,79.40
2022-12-01T01:07:25.446Z,79.40
2022-12-01T01:07:34.817Z,79.50
2022-12-01T01:07:44.316Z,79.70
2022-12-01T01:07:53.657Z,79.70
2022-12-01T01:08:03.133Z,79.70
2022-12-01T01:08:12.617Z,79.80
2022-12-01T01:08:22.045Z,79.90
2022-12-01T01:08:31.470Z,79.90
2022-12-01T01:08:40.923Z,79.90
2022-12-01T01:08:50.303Z,80.00
2022-12-01T01:09:09.117Z,80.00
2022-12-01T01:09:18.513Z,80.00
2022-12-01T01:09:27.956Z,80.00
2022-12-01T01:09:37.359Z,80.00
2022-12-01T01:09:47.211Z,79.90
2022-12-01T01:09:56.293Z,79.80
2022-12-01T01:10:05.685Z,79.70
2022-12-01T01:10:15.134Z,79.60
2022-12-01T01:10:24.555Z,79.50
2022-12-01T01:10:33.996Z,79.40
2022-12-01T01:10:43.386Z,79.40
2022-12-01T01:10:52.818Z,79.30
2022-12-01T01:11:02.235Z,79.20
2022-12-01T01:11:11.728Z,79.20
2022-12-01T01:11:21.153Z,79.10
2022-12-01T01:11:30.571Z,79.20
2022-12-01T01:11:49.425Z,79.40
2022-12-01T01:11:58.847Z,79.30
2022-12-01T01:12:08.246Z,79.30
2022-12-01T01:12:17.675Z,79.30
2022-12-01T01:12:27.123Z,79.20
2022-12-01T01:12:36.530Z,79.30
2022-12-01T01:12:45.938Z,79.30
2022-12-01T01:12:55.384Z,79.30
2022-12-01T01:13:04.787Z,79.40
2022-12-01T01:13:14.231Z,79.40
2022-12-01T01:13:23.657Z,79.30
2022-12-01T01:13:33.044Z,79.30
2022-12-01T01:13:42.457Z,79.20
2022-12-01T01:13:51.851Z,79.20
2022-12-01T01:14:01.238Z,79.20
2022-12-01T01:14:10.658Z,79.10
2022-12-01T01:14:29.512Z,79.20
2022-12-01T01:14:38.919Z,79.20
2022-12-01T01:14:48.300Z,79.10
2022-12-01T01:14:57.734Z,79.00
2022-12-01T01:15:07.118Z,79.00
2022-12-01T01:15:16.533Z,78.90
2022-12-01T01:15:25.903Z,78.90
2022-12-01T01:15:35.309Z,78.90
2022-12-01T01:15:44.733Z,79.00
2022-12-01T01:15:54.149Z,79.00
2022-12-01T01:16:03.583Z,79.10
2022-12-01T01:16:13.003Z,79.10
2022-12-01T01:16:22.484Z,79.00
2022-12-01T01:16:31.856Z,79.00
2022-12-01T01:16:41.279Z,78.90
2022-12-01T01:16:50.679Z,78.90
2022-12-01T01:17:09.459Z,78.80
2022-12-01T01:17:18.838Z,78.80
2022-12-01T01:17:28.291Z,78.80
2022-12-01T01:17:37.785Z,78.80
2022-12-01T01:17:47.209Z,78.80
2022-12-01T01:17:56.759Z,78.70
2022-12-01T01:18:06.185Z,78.70
2022-12-01T01:18:15.586Z,78.70
2022-12-01T01:18:25.056Z,78.70
2022-12-01T01:18:34.517Z,78.80
2022-12-01T01:18:43.937Z,78.90
2022-12-01T01:18:53.361Z,78.90
2022-12-01T01:19:02.767Z,79.00
2022-12-01T01:19:12.702Z,79.00
2022-12-01T01:19:22.132Z,79.00
2022-12-01T01:19:31.519Z,79.00
2022-12-01T01:19:40.932Z,79.10
2022-12-01T01:19:50.651Z,79.20
2022-12-01T01:20:09.177Z,79.40
2022-12-01T01:20:18.582Z,79.50
2022-12-01T01:20:28.005Z,79.70
2022-12-01T01:20:37.445Z,79.70
2022-12-01T01:20:46.919Z,79.90
2022-12-01T01:20:56.403Z,80.00
2022-12-01T01:21:05.788Z,80.10
2022-12-01T01:21:15.218Z,80.20
2022-12-01T01:21:24.623Z,78.70
2022-12-01T01:21:34.059Z,80.50
2022-12-01T01:21:43.508Z,80.70
2022-12-01T01:21:52.931Z,80.70
2022-12-01T01:22:02.351Z,80.80
2022-12-01T01:22:11.779Z,80.90
2022-12-01T01:22:21.189Z,81.10
2022-12-01T01:22:30.599Z,81.20
2022-12-01T01:22:49.408Z,81.40
2022-12-01T01:22:58.804Z,81.60
2022-12-01T01:23:08.269Z,81.80
2022-12-01T01:23:17.671Z,82.00
2022-12-01T01:23:29.249Z,82.10
2022-12-01T01:23:38.670Z,82.20
2022-12-01T01:23:48.120Z,82.40
2022-12-01T01:23:57.514Z,82.60
2022-12-01T01:24:06.946Z,82.70
2022-12-01T01:24:16.352Z,82.80
2022-12-01T01:24:25.756Z,83.00
2022-12-01T01:24:35.203Z,83.20
2022-12-01T01:24:44.590Z,83.20
2022-12-01T01:24:54.011Z,83.50
2022-12-01T01:25:03.440Z,83.60
2022-12-01T01:25:12.853Z,83.70
2022-12-01T01:25:22.242Z,83.90
2022-12-01T01:25:31.698Z,84.10
2022-12-01T01:25:41.136Z,84.30
2022-12-01T01:25:50.546Z,84.40
2022-12-01T01:26:09.357Z,84.80
2022-12-01T01:26:18.769Z,84.90
2022-12-01T01:26:28.184Z,85.10
2022-12-01T01:26:37.615Z,85.10
2022-12-01T01:26:47.056Z,85.40
2022-12-01T01:26:56.485Z,85.50
2022-12-01T01:27:05.912Z,85.70
2022-12-01T01:27:15.329Z,85.90
2022-12-01T01:27:24.736Z,86.00
2022-12-01T01:27:34.162Z,86.30
2022-12-01T01:27:43.584Z,86.40
2022-12-01T01:27:52.999Z,86.40
2022-12-01T01:28:02.442Z,86.70
2022-12-01T01:28:11.838Z,86.80
2022-12-01T01:28:21.236Z,87.00
2022-12-01T01:28:30.712Z,87.10
2022-12-01T01:28:49.573Z,87.50
2022-12-01T01:28:58.977Z,87.70
2022-12-01T01:29:08.441Z,87.80
2022-12-01T01:29:17.890Z,88.10
2022-12-01T01:29:27.311Z,88.20
2022-12-01T01:29:36.749Z,88.20
2022-12-01T01:29:46.587Z,88.40
2022-12-01T01:29:55.692Z,88.50
2022-12-01T01:30:05.097Z,88.60
2022-12-01T01:30:14.513Z,88.70
2022-12-01T01:30:23.978Z,88.70
2022-12-01T01:30:33.391Z,88.90
2022-12-01T01:30:42.767Z,88.90
2022-12-01T01:30:52.229Z,89.00
2022-12-01T01:31:01.668Z,89.20
2022-12-01T01:31:11.027Z,89.30
2022-12-01T01:31:20.579Z,89.50
2022-12-01T01:31:39.277Z,89.70
2022-12-01T01:31:48.703Z,89.90
2022-12-01T01:31:58.133Z,90.00
2022-12-01T01:32:07.539Z,90.10
2022-12-01T01:32:16.962Z,90.10
2022-12-01T01:32:26.483Z,90.10
2022-12-01T01:32:35.943Z,90.10
2022-12-01T01:32:45.361Z,90.10
2022-12-01T01:32:54.746Z,90.20
2022-12-01T01:33:04.175Z,90.30
2022-12-01T01:33:13.589Z,90.30
2022-12-01T01:33:23.010Z,90.30
2022-12-01T01:33:32.444Z,90.30
2022-12-01T01:33:41.851Z,90.30
2022-12-01T01:33:51.339Z,90.40
2022-12-01T01:34:00.748Z,90.40
2022-12-01T01:34:19.571Z,90.50
2022-12-01T01:34:29.036Z,90.50
2022-12-01T01:34:38.444Z,90.50
2022-12-01T01:34:47.851Z,90.60
2022-12-01T01:34:57.254Z,90.60
2022-12-01T01:35:06.677Z,90.60
2022-12-01T01:35:16.082Z,90.60
2022-12-01T01:35:25.519Z,90.60
2022-12-01T01:35:34.919Z,90.60
2022-12-01T01:35:44.323Z,90.60
2022-12-01T01:35:53.927Z,90.60
2022-12-01T01:36:03.316Z,90.70
2022-12-01T01:36:12.729Z,90.70
2022-12-01T01:36:22.138Z,90.70
2022-12-01T01:36:31.539Z,90.80
2022-12-01T01:36:40.983Z,90.80
2022-12-01T01:36:50.423Z,90.90
2022-12-01T01:37:09.243Z,90.20
2022-12-01T01:37:18.672Z,91.00
2022-12-01T01:37:28.126Z,91.00
2022-12-01T01:37:37.568Z,91.00
2022-12-01T01:37:47.016Z,91.10
2022-12-01T01:37:56.455Z,91.10
2022-12-01T01:38:05.843Z,91.20
2022-12-01T01:38:15.263Z,91.20
2022-12-01T01:38:24.718Z,91.30
2022-12-01T01:38:34.176Z,91.30
2022-12-01T01:38:43.627Z,91.30
2022-12-01T01:38:53.089Z,91.30
2022-12-01T01:39:02.493Z,91.40
2022-12-01T01:39:11.933Z,91.40
2022-12-01T01:39:21.345Z,91.40
2022-12-01T01:39:30.764Z,91.40
2022-12-01T01:39:49.922Z,91.50
2022-12-01T01:39:59.004Z,91.50
2022-12-01T01:40:08.414Z,91.60
2022-12-01T01:40:17.838Z,91.60
2022-12-01T01:40:27.245Z,91.60
2022-12-01T01:40:36.684Z,91.60
2022-12-01T01:40:46.132Z,91.60
2022-12-01T01:40:55.569Z,91.70
2022-12-01T01:41:04.952Z,91.70
2022-12-01T01:41:14.354Z,91.80
2022-12-01T01:41:23.759Z,91.80
2022-12-01T01:41:33.164Z,91.80
2022-12-01T01:41:42.584Z,91.90
2022-12-01T01:41:52.005Z,91.90
2022-12-01T01:42:01.426Z,92.00
2022-12-01T01:42:10.835Z,92.00
2022-12-01T01:42:20.243Z,92.10
2022-12-01T01:42:39.056Z,92.10
2022-12-01T01:42:48.473Z,92.10
2022-12-01T01:42:57.880Z,92.10
2022-12-01T01:43:07.296Z,92.10
2022-12-01T01:43:17.935Z,92.20
2022-12-01T01:43:27.354Z,92.10
2022-12-01T01:43:36.909Z,92.10
2022-12-01T01:43:46.391Z,92.00
2022-12-01T01:43:55.816Z,92.00
2022-12-01T01:44:05.227Z,92.00
2022-12-01T01:44:14.634Z,92.00
2022-12-01T01:44:24.069Z,92.00
2022-12-01T01:44:33.510Z,92.00
2022-12-01T01:44:42.926Z,92.00
2022-12-01T01:44:52.345Z,92.00
2022-12-01T01:45:01.778Z,92.00
2022-12-01T01:45:11.174Z,92.00
2022-12-01T01:45:20.603Z,92.00
2022-12-01T01:45:39.487Z,92.10
2022-12-01T01:45:48.918Z,92.10
2022-12-01T01:45:58.341Z,92.10
2022-12-01T01:46:07.752Z,92.10
2022-12-01T01:46:17.210Z,92.10
2022-12-01T01:46:26.578Z,92.10
2022-12-01T01:46:36.005Z,92.10
2022-12-01T01:46:45.387Z,92.10
2022-12-01T01:46:54.856Z,92.10
2022-12-01T01:47:04.259Z,92.20
2022-12-01T01:47:13.657Z,92.20
2022-12-01T01:47:23.068Z,92.20
2022-12-01T01:47:32.472Z,92.20
2022-12-01T01:47:41.870Z,92.30
2022-12-01T01:47:51.283Z,92.30
2022-12-01T01:48:00.734Z,92.30
2022-12-01T01:48:19.615Z,92.30
2022-12-01T01:48:29.032Z,92.30
2022-12-01T01:48:38.517Z,92.30
2022-12-01T01:48:47.956Z,92.40
2022-12-01T01:48:57.493Z,92.40
2022-12-01T01:49:06.915Z,92.40
2022-12-01T01:49:16.322Z,92.40
2022-12-01T01:49:25.719Z,92.50
2022-12-01T01:49:35.115Z,92.40
2022-12-01T01:49:44.531Z,92.50
2022-12-01T01:49:53.945Z,92.50
2022-12-01T01:50:03.368Z,92.50
2022-12-01T01:50:12.790Z,92.50
2022-12-01T01:50:22.273Z,92.50
2022-12-01T01:50:31.690Z,92.50
2022-12-01T01:50:41.132Z,92.50
2022-12-01T01:50:50.569Z,92.50
2022-12-01T01:51:09.374Z,92.50
2022-12-01T01:51:18.810Z,92.50
2022-12-01T01:51:28.213Z,92.40
2022-12-01T01:51:37.641Z,92.40
2022-12-01T01:51:47.064Z,92.30
2022-12-01T01:51:56.534Z,92.20
2022-12-01T01:52:05.909Z,92.20
2022-12-01T01:52:15.376Z,92.20
2022-12-01T01:52:24.783Z,92.30
2022-12-01T01:52:34.212Z,92.20
2022-12-01T01:52:43.610Z,92.20
2022-12-01T01:52:53.045Z,92.20
2022-12-01T01:53:02.467Z,92.20
2022-12-01T01:53:11.854Z,92.20
2022-12-01T01:53:21.278Z,92.20
2022-12-01T01:53:30.721Z,92.20
2022-12-01T01:53:49.513Z,92.30
2022-12-01T01:53:58.932Z,92.20
2022-12-01T01:54:08.315Z,92.30
2022-12-01T01:54:17.714Z,92.30
2022-12-01T01:54:27.155Z,92.30
2022-12-01T01:54:36.576Z,92.30
2022-12-01T01:54:45.998Z,92.20
2022-12-01T01:54:55.393Z,92.20
2022-12-01T01:55:04.813Z,92.30
2022-12-01T01:55:14.243Z,92.30
2022-12-01T01:55:23.638Z,92.30
2022-12-01T01:55:33.064Z,92.40
2022-12-01T01:55:42.459Z,92.40
2022-12-01T01:55:51.874Z,92.40
2022-12-01T01:56:01.333Z,92.40
2022-12-01T01:56:10.754Z,92.40
2022-12-01T01:56:29.581Z,92.50
2022-12-01T01:56:39.031Z,92.50
2022-12-01T01:56:48.429Z,92.50
2022-12-01T01:56:57.858Z,92.50
2022-12-01T01:57:07.307Z,92.60
2022-12-01T01:57:16.792Z,92.60
2022-12-01T01:57:26.226Z,92.60
2022-12-01T01:57:35.632Z,92.50
2022-12-01T01:57:45.384Z,92.50
2022-12-01T01:57:54.799Z,92.50
2022-12-01T01:58:04.197Z,92.50
2022-12-01T01:58:13.621Z,92.50
2022-12-01T01:58:23.028Z,92.60
2022-12-01T01:58:32.430Z,92.60
2022-12-01T01:58:41.888Z,92.60
2022-12-01T01:58:51.331Z,92.60
2022-12-01T01:59:00.732Z,92.60
2022-12-01T01:59:19.548Z,92.60
2022-12-01T01:59:28.961Z,92.60
2022-12-01T01:59:38.482Z,92.60
2022-12-01T01:59:48.391Z,92.60
2022-12-01T01:59:57.331Z,92.50
2022-12-01T02:00:06.776Z,92.60
2022-12-01T02:00:16.271Z,92.50
2022-12-01T02:00:25.720Z,92.60
2022-12-01T02:00:35.140Z,92.60
2022-12-01T02:00:44.596Z,92.60
2022-12-01T02:00:54.097Z,92.60
2022-12-01T02:01:03.579Z,92.70
2022-12-01T02:01:12.996Z,92.70
2022-12-01T02:01:22.488Z,92.70
2022-12-01T02:01:31.936Z,92.80
2022-12-01T02:01:41.292Z,92.90
2022-12-01T02:01:50.620Z,92.90
2022-12-01T02:02:09.511Z,92.80
2022-12-01T02:02:18.987Z,92.80
2022-12-01T02:02:28.353Z,92.80
2022-12-01T02:02:37.801Z,92.80
2022-12-01T02:02:47.263Z,92.70
2022-12-01T02:02:56.667Z,92.70
2022-12-01T02:03:06.008Z,92.70
2022-12-01T02:03:15.405Z,92.70
2022-12-01T02:03:24.833Z,92.70
2022-12-01T02:03:34.290Z,92.70
2022-12-01T02:03:43.771Z,92.70
2022-12-01T02:03:53.201Z,92.60
2022-12-01T02:04:02.663Z,92.60
2022-12-01T02:04:12.125Z,92.60
2022-12-01T02:04:21.594Z,92.70
2022-12-01T02:04:30.999Z,92.70
2022-12-01T02:04:40.437Z,92.70
2022-12-01T02:04:59.346Z,92.70
2022-12-01T02:05:08.759Z,92.70
2022-12-01T02:05:18.254Z,92.60
2022-12-01T02:05:27.669Z,92.60
2022-12-01T02:05:37.106Z,91.90
2022-12-01T02:05:46.519Z,92.70
2022-12-01T02:05:57.487Z,92.70
2022-12-01T02:06:05.387Z,92.00
2022-12-01T02:06:14.911Z,92.70
2022-12-01T02:06:24.336Z,92.70
2022-12-01T02:06:33.753Z,92.70
2022-12-01T02:06:43.197Z,92.70
2022-12-01T02:06:52.660Z,92.70
2022-12-01T02:07:02.074Z,92.70
2022-12-01T02:07:11.498Z,92.70
2022-12-01T02:07:20.972Z,92.70
2022-12-01T02:07:30.405Z,92.70
2022-12-01T02:07:49.289Z,92.70
2022-12-01T02:07:58.674Z,92.70
2022-12-01T02:08:08.207Z,92.80
2022-12-01T02:08:17.494Z,92.80
2022-12-01T02:08:27.010Z,92.90
2022-12-01T02:08:36.443Z,92.90
2022-12-01T02:08:45.856Z,92.90